createdAt,value
2019-05-17T00:02:30.940Z,81.80
2019-05-17T00:05:02.298Z,81.45
2019-05-17T00:07:36.869Z,81.53
2019-05-17T00:10:17.289Z,81.85
2019-05-17T00:12:51.685Z,82.02
2019-05-17T00:15:27.444Z,81.91
2019-05-17T00:18:02.195Z,81.67
2019-05-17T00:20:37.633Z,81.56
2019-05-17T00:23:14.684Z,81.25
2019-05-17T00:25:47.174Z,81.51
2019-05-17T00:28:20.309Z,81.48
2019-05-17T00:30:56.982Z,81.63
2019-05-17T00:33:29.732Z,82.16
2019-05-17T00:36:04.068Z,82.84
2019-05-17T00:38:47.910Z,83.24
2019-05-17T00:41:12.607Z,83.45
2019-05-17T00:43:46.711Z,83.47
2019-05-17T00:46:21.650Z,83.52
2019-05-17T00:48:57.158Z,83.57
2019-05-17T00:51:28.533Z,83.72
2019-05-17T00:56:59.501Z,83.92
2019-05-17T00:59:33.515Z,84.57
2019-05-17T01:02:07.030Z,84.71
2019-05-17T01:04:38.906Z,83.88
2019-05-17T01:07:12.555Z,82.60
2019-05-17T01:09:47.213Z,82.03
2019-05-17T01:12:19.960Z,80.55
2019-05-17T01:14:54.332Z,79.33
2019-05-17T01:17:27.124Z,78.90
2019-05-17T01:19:58.519Z,79.25
2019-05-17T01:22:31.326Z,80.01
2019-05-17T01:25:03.204Z,81.23
2019-05-17T01:27:35.024Z,81.85
2019-05-17T01:30:12.128Z,82.63
2019-05-17T01:32:46.421Z,83.03
2019-05-17T01:35:19.725Z,84.03
2019-05-17T01:37:51.341Z,84.57
2019-05-17T01:40:23.701Z,84.77
2019-05-17T01:42:58.147Z,84.24
2019-05-17T01:45:32.593Z,83.71
2019-05-17T01:48:10.450Z,83.25
2019-05-17T01:50:42.979Z,83.95
2019-05-17T01:53:16.591Z,84.41
2019-05-17T01:55:48.922Z,84.69
2019-05-17T01:58:22.241Z,84.83
2019-05-17T02:00:57.410Z,85.13
2019-05-17T02:03:28.942Z,85.11
2019-05-17T02:06:02.800Z,85.24
2019-05-17T02:08:37.220Z,84.62
2019-05-17T02:14:07.101Z,84.75
2019-05-17T02:16:39.036Z,83.93
2019-05-17T02:19:10.550Z,84.07
2019-05-17T02:21:42.704Z,84.61
2019-05-17T02:24:16.777Z,84.95
2019-05-17T02:26:47.396Z,85.09
2019-05-17T02:29:18.982Z,85.30
2019-05-17T02:31:52.779Z,85.64
2019-05-17T02:34:26.263Z,85.82
2019-05-17T02:36:59.077Z,86.13
2019-05-17T02:39:32.917Z,86.40
2019-05-17T02:42:06.553Z,86.16
2019-05-17T02:44:43.720Z,85.24
2019-05-17T02:47:15.881Z,83.83
2019-05-17T02:49:49.291Z,81.79
2019-05-17T02:52:23.180Z,81.51
2019-05-17T02:54:55.012Z,82.11
2019-05-17T02:57:26.404Z,82.69
2019-05-17T02:59:58.893Z,83.14
2019-05-17T03:02:33.837Z,82.97
2019-05-17T03:05:07.075Z,83.23
2019-05-17T03:07:43.844Z,83.67
2019-05-17T03:10:24.179Z,84.15
2019-05-17T03:12:48.294Z,84.23
2019-05-17T03:15:23.437Z,84.42
2019-05-17T03:17:55.503Z,84.75
2019-05-17T03:20:26.949Z,85.36
2019-05-17T03:22:59.181Z,85.44
2019-05-17T03:25:33.517Z,85.26
2019-05-17T03:28:06.528Z,85.29
2019-05-17T03:30:46.040Z,85.53
2019-05-17T03:33:16.701Z,85.73
2019-05-17T03:35:49.132Z,85.83
2019-05-17T03:38:22.832Z,85.86
2019-05-17T03:41:09.390Z,85.90
2019-05-17T03:43:28.640Z,85.60
2019-05-17T03:46:02.836Z,85.99
2019-05-17T03:48:34.226Z,86.12
2019-05-17T03:51:06.918Z,86.15
2019-05-17T03:53:38.359Z,86.96
2019-05-17T03:56:13.166Z,87.30
2019-05-17T03:58:43.678Z,87.60
2019-05-17T04:01:16.543Z,87.58
2019-05-17T04:03:52.725Z,87.65
2019-05-17T04:06:23.808Z,87.12
2019-05-17T04:08:55.677Z,85.54
2019-05-17T04:11:31.808Z,82.72
2019-05-17T04:14:02.956Z,80.39
2019-05-17T04:16:35.379Z,79.84
2019-05-17T04:19:07.639Z,80.54
2019-05-17T04:21:42.715Z,81.32
2019-05-17T04:24:14.192Z,81.43
2019-05-17T04:26:47.994Z,82.03
2019-05-17T04:29:22.907Z,82.04
2019-05-17T04:31:55.614Z,80.72
2019-05-17T04:34:27.368Z,81.78
2019-05-17T04:36:59.664Z,82.85
2019-05-17T04:39:33.350Z,82.05
2019-05-17T04:42:05.106Z,80.95
2019-05-17T04:44:36.482Z,81.50
2019-05-17T04:47:08.584Z,82.05
2019-05-17T04:49:44.022Z,82.27
2019-05-17T04:52:14.590Z,82.07
2019-05-17T04:54:45.875Z,81.38
2019-05-17T04:57:17.573Z,79.98
2019-05-17T04:59:52.169Z,78.51
2019-05-17T05:02:23.742Z,77.44
2019-05-17T05:04:55.275Z,73.00
2019-05-17T05:07:29.584Z,69.97
2019-05-17T05:10:02.991Z,69.78
2019-05-17T05:12:35.693Z,69.48
2019-05-17T05:15:13.076Z,67.82
2019-05-17T05:17:46.117Z,68.06
2019-05-17T05:20:21.979Z,69.66
2019-05-17T05:22:52.688Z,68.37
2019-05-17T05:25:24.153Z,66.60
2019-05-17T05:27:56.912Z,62.55
2019-05-17T05:30:28.356Z,60.47
2019-05-17T05:33:01.894Z,60.50
2019-05-17T05:35:32.906Z,61.61
2019-05-17T05:38:04.718Z,61.39
2019-05-17T05:40:37.559Z,60.08
2019-05-17T05:43:12.081Z,61.37
2019-05-17T05:45:43.766Z,63.18
2019-05-17T05:48:15.159Z,64.40
2019-05-17T05:50:46.399Z,64.01
2019-05-17T05:53:17.807Z,65.28
2019-05-17T05:55:51.787Z,65.71
2019-05-17T05:58:24.252Z,63.74
2019-05-17T06:00:57.569Z,61.68
2019-05-17T06:03:32.049Z,63.34
2019-05-17T06:06:04.723Z,61.30
2019-05-17T06:08:36.576Z,58.17
2019-05-17T06:11:09.060Z,57.66
2019-05-17T06:13:42.044Z,56.37
2019-05-17T06:16:13.435Z,56.59
2019-05-17T06:18:44.614Z,55.27
2019-05-17T06:21:15.981Z,55.09
2019-05-17T06:23:48.756Z,60.15
2019-05-17T06:26:23.470Z,58.87
2019-05-17T06:28:53.106Z,59.55
2019-05-17T06:31:24.471Z,58.84
2019-05-17T06:33:56.415Z,58.04
2019-05-17T06:36:29.045Z,57.86
2019-05-17T06:39:02.261Z,61.46
2019-05-17T06:41:33.604Z,59.04
2019-05-17T06:44:05.287Z,58.20
2019-05-17T06:46:41.620Z,58.17
2019-05-17T06:49:11.896Z,54.61
2019-05-17T06:51:43.651Z,54.03
2019-05-17T06:54:17.335Z,55.50
2019-05-17T06:56:48.883Z,57.38
2019-05-17T06:59:21.667Z,54.48
2019-05-17T07:01:53.251Z,51.35
2019-05-17T07:04:24.435Z,53.20
2019-05-17T07:07:20.831Z,54.16
2019-05-17T07:10:00.760Z,56.35
2019-05-17T07:12:33.063Z,55.67
2019-05-17T07:15:16.766Z,51.76
2019-05-17T07:17:50.366Z,52.39
2019-05-17T07:20:21.525Z,54.60
2019-05-17T07:22:52.927Z,53.81
2019-05-17T07:25:24.323Z,54.67
2019-05-17T07:27:55.582Z,55.81
2019-05-17T07:30:27.114Z,57.63
2019-05-17T07:33:00.447Z,55.42
2019-05-17T07:35:31.356Z,54.04
2019-05-17T07:38:10.774Z,55.88
2019-05-17T07:40:42.428Z,55.69
2019-05-17T07:43:14.982Z,53.31
2019-05-17T07:45:46.568Z,54.58
2019-05-17T07:48:20.047Z,55.62
2019-05-17T07:50:52.890Z,54.76
2019-05-17T07:53:24.116Z,53.42
2019-05-17T07:55:55.665Z,52.46
2019-05-17T07:58:29.704Z,53.84
2019-05-17T08:01:02.155Z,54.71
2019-05-17T08:03:34.734Z,52.13
2019-05-17T08:06:10.337Z,50.94
2019-05-17T08:08:41.846Z,51.27
2019-05-17T08:11:14.576Z,53.24
2019-05-17T08:13:46.710Z,51.42
2019-05-17T08:16:19.698Z,52.04
2019-05-17T08:18:53.191Z,49.61
2019-05-17T08:21:25.433Z,51.35
2019-05-17T08:24:03.363Z,51.81
2019-05-17T08:26:35.213Z,49.22
2019-05-17T08:29:06.663Z,49.75
2019-05-17T08:31:40.477Z,50.07
2019-05-17T08:34:13.175Z,48.47
2019-05-17T08:36:45.010Z,49.84
2019-05-17T08:39:16.610Z,48.66
2019-05-17T08:41:49.728Z,48.90
2019-05-17T08:44:22.532Z,49.42
2019-05-17T08:46:54.096Z,48.31
2019-05-17T08:49:29.562Z,50.13
2019-05-17T08:52:04.430Z,48.82
2019-05-17T08:54:36.472Z,51.33
2019-05-17T08:57:09.574Z,48.81
2019-05-17T08:59:41.530Z,47.47
2019-05-17T09:02:13.480Z,48.03
2019-05-17T09:04:45.296Z,48.80
2019-05-17T09:07:20.430Z,45.57
2019-05-17T09:09:53.659Z,47.04
2019-05-17T09:12:25.525Z,46.20
2019-05-17T09:15:00.251Z,45.69
2019-05-17T09:17:31.474Z,44.49
2019-05-17T09:20:05.340Z,45.45
2019-05-17T09:22:36.654Z,45.75
2019-05-17T09:25:13.537Z,46.08
2019-05-17T09:27:43.656Z,46.21
2019-05-17T09:30:20.343Z,44.89
2019-05-17T09:32:55.881Z,44.81
2019-05-17T09:35:29.885Z,44.78
2019-05-17T09:38:02.192Z,44.31
2019-05-17T09:40:35.242Z,44.72
2019-05-17T09:43:10.320Z,45.88
2019-05-17T09:45:42.338Z,45.18
2019-05-17T09:48:19.467Z,44.69
2019-05-17T09:50:54.295Z,46.15
2019-05-17T09:53:26.646Z,46.34
2019-05-17T09:56:00.574Z,44.82
2019-05-17T09:58:33.940Z,45.76
2019-05-17T10:01:09.317Z,46.43
2019-05-17T10:03:42.066Z,46.69
2019-05-17T10:06:19.924Z,44.61
2019-05-17T10:08:51.815Z,42.94
2019-05-17T10:11:23.931Z,44.71
2019-05-17T10:13:58.352Z,45.70
2019-05-17T10:16:30.811Z,48.53
2019-05-17T10:19:03.502Z,44.14
2019-05-17T10:21:35.146Z,44.02
2019-05-17T10:24:09.582Z,44.64
2019-05-17T10:26:41.503Z,44.87
2019-05-17T10:29:13.092Z,44.71
2019-05-17T10:31:46.301Z,45.88
2019-05-17T10:34:20.216Z,42.69
2019-05-17T10:36:52.891Z,45.05
2019-05-17T10:39:25.648Z,44.36
2019-05-17T10:41:57.768Z,44.69
2019-05-17T10:44:43.585Z,45.09
2019-05-17T10:47:24.053Z,46.80
2019-05-17T10:49:55.993Z,45.34
2019-05-17T10:52:29.906Z,47.80
2019-05-17T10:55:02.209Z,45.16
2019-05-17T10:57:35.967Z,46.92
2019-05-17T11:00:16.366Z,47.18
2019-05-17T11:02:50.350Z,49.90
2019-05-17T11:05:21.978Z,46.36
2019-05-17T11:07:54.493Z,48.04
2019-05-17T11:10:27.737Z,49.11
2019-05-17T11:13:10.667Z,46.67
2019-05-17T11:15:45.518Z,47.85
2019-05-17T11:18:19.929Z,46.85
2019-05-17T11:20:52.808Z,46.52
2019-05-17T11:23:24.440Z,43.78
2019-05-17T11:25:57.381Z,43.64
2019-05-17T11:28:29.021Z,42.88
2019-05-17T11:31:02.036Z,44.30
2019-05-17T11:33:34.225Z,44.82
2019-05-17T11:36:07.647Z,45.83
2019-05-17T11:38:41.052Z,45.66
2019-05-17T11:41:21.030Z,46.29
2019-05-17T11:43:48.217Z,46.35
2019-05-17T11:46:35.326Z,46.11
2019-05-17T11:48:57.395Z,45.16
2019-05-17T11:51:29.559Z,45.00
2019-05-17T11:54:02.636Z,45.21
2019-05-17T11:56:35.486Z,44.52
2019-05-17T11:59:08.879Z,43.84
2019-05-17T12:01:41.872Z,44.97
2019-05-17T12:04:13.563Z,45.72
2019-05-17T12:06:46.022Z,46.74
2019-05-17T12:09:36.422Z,47.13
2019-05-17T12:11:57.010Z,46.41
2019-05-17T12:14:29.063Z,44.81
2019-05-17T12:17:01.231Z,46.52
2019-05-17T12:19:37.037Z,46.50
2019-05-17T12:22:07.513Z,48.15
2019-05-17T12:24:53.010Z,47.30
2019-05-17T12:27:26.202Z,47.62
2019-05-17T12:35:45.122Z,46.76
2019-05-17T12:44:06.397Z,46.78
2019-05-17T12:46:38.375Z,47.16
2019-05-17T12:49:11.025Z,45.95
2019-05-17T12:51:42.917Z,47.22
2019-05-17T12:54:17.367Z,46.53
2019-05-17T12:56:48.948Z,48.09
2019-05-17T12:59:21.484Z,45.56
2019-05-17T13:01:54.816Z,45.53
2019-05-17T13:04:28.100Z,45.82
2019-05-17T13:07:20.528Z,47.53
2019-05-17T13:09:55.148Z,46.56
2019-05-17T13:12:27.383Z,47.10
2019-05-17T13:15:00.787Z,47.09
2019-05-17T13:17:36.851Z,48.76
2019-05-17T13:20:13.758Z,47.85
2019-05-17T13:22:46.502Z,45.96
2019-05-17T13:25:19.436Z,46.28
2019-05-17T13:27:52.322Z,45.27
2019-05-17T13:30:33.223Z,48.59
2019-05-17T13:33:29.167Z,47.58
2019-05-17T13:36:00.845Z,47.78
2019-05-17T13:39:08.077Z,47.78
2019-05-17T13:45:03.315Z,47.33
2019-05-17T13:47:37.214Z,47.17
2019-05-17T13:50:10.734Z,48.76
2019-05-17T13:52:44.061Z,50.78
2019-05-17T13:55:17.247Z,49.81
2019-05-17T13:57:52.218Z,49.39
2019-05-17T14:03:22.315Z,49.77
2019-05-17T14:05:57.190Z,49.82
2019-05-17T14:08:32.542Z,49.64
2019-05-17T14:11:10.288Z,49.78
2019-05-17T14:13:47.265Z,50.27
2019-05-17T14:19:10.019Z,51.80
2019-05-17T14:21:43.527Z,52.24
2019-05-17T14:24:17.348Z,52.04
2019-05-17T14:26:56.448Z,52.06
2019-05-17T14:29:37.254Z,52.44
2019-05-17T14:32:22.968Z,52.50
2019-05-17T14:35:03.725Z,52.54
2019-05-17T14:37:39.412Z,51.74
2019-05-17T14:40:12.214Z,52.43
2019-05-17T14:42:47.545Z,52.20
2019-05-17T14:50:57.804Z,51.78
2019-05-17T14:53:32.065Z,52.03
2019-05-17T14:56:04.148Z,52.82
2019-05-17T14:58:36.719Z,52.23
2019-05-17T15:03:57.163Z,53.38
2019-05-17T15:06:29.860Z,53.76
2019-05-17T15:09:11.671Z,53.28
2019-05-17T15:11:43.562Z,52.36
2019-05-17T15:14:36.452Z,52.62
2019-05-17T15:17:09.189Z,52.63
2019-05-17T15:19:41.522Z,51.80
2019-05-17T15:22:13.929Z,52.34
2019-05-17T15:24:51.258Z,51.84
2019-05-17T15:27:25.247Z,52.35
2019-05-17T15:29:59.575Z,51.81
2019-05-17T15:32:33.818Z,52.80
2019-05-17T15:35:11.210Z,52.33
2019-05-17T15:37:47.108Z,52.34
2019-05-17T15:40:20.998Z,53.28
2019-05-17T15:42:54.964Z,53.34
2019-05-17T15:45:28.607Z,52.78
2019-05-17T15:48:03.403Z,50.93
2019-05-17T15:50:37.401Z,50.93
2019-05-17T15:53:10.355Z,50.55
2019-05-17T15:55:45.769Z,51.30
2019-05-17T15:58:19.083Z,50.92
2019-05-17T16:03:48.075Z,51.55
2019-05-17T16:06:22.549Z,50.05
2019-05-17T16:08:55.752Z,50.76
2019-05-17T16:11:31.620Z,49.93
2019-05-17T16:14:04.800Z,50.34
2019-05-17T16:17:04.452Z,50.46
2019-05-17T16:19:54.648Z,51.19
2019-05-17T16:22:33.430Z,51.51
2019-05-17T16:25:26.872Z,49.75
2019-05-17T16:28:00.657Z,49.89
2019-05-17T16:30:34.019Z,49.85
2019-05-17T16:33:06.882Z,50.13
2019-05-17T16:39:09.139Z,49.88
2019-05-17T16:41:55.401Z,50.27
2019-05-17T16:44:51.747Z,50.46
2019-05-17T16:47:32.547Z,49.93
2019-05-17T16:50:18.459Z,49.74
2019-05-17T16:53:19.749Z,49.48
2019-05-17T16:55:58.164Z,49.88
2019-05-17T16:58:53.224Z,49.93
2019-05-17T17:01:27.955Z,49.90
2019-05-17T17:04:02.846Z,50.20
2019-05-17T17:06:37.337Z,49.90
2019-05-17T17:09:13.534Z,50.82
2019-05-17T17:11:47.422Z,51.21
2019-05-17T17:14:21.454Z,51.29
2019-05-17T17:16:53.544Z,51.57
2019-05-17T17:19:37.806Z,51.91
2019-05-17T17:22:20.252Z,50.89
2019-05-17T17:24:56.493Z,50.97
2019-05-17T17:27:49.482Z,51.56
2019-05-17T17:30:25.750Z,51.92
2019-05-17T17:32:58.162Z,51.93
2019-05-17T17:35:30.606Z,52.09
2019-05-17T17:38:01.037Z,52.41
2019-05-17T17:40:39.027Z,51.90
2019-05-17T17:43:15.187Z,51.91
2019-05-17T17:45:50.541Z,51.87
2019-05-17T17:48:45.902Z,51.77
2019-05-17T17:51:24.306Z,52.94
2019-05-17T17:53:56.542Z,52.95
2019-05-17T17:59:28.200Z,53.10
2019-05-17T18:02:03.336Z,53.57
2019-05-17T18:04:37.863Z,53.52
2019-05-17T18:07:16.191Z,53.79
2019-05-17T18:10:09.726Z,53.58
2019-05-17T18:15:50.229Z,54.40
2019-05-17T18:18:24.934Z,54.50
2019-05-17T18:21:00.192Z,54.68
2019-05-17T18:23:52.891Z,54.59
2019-05-17T18:26:26.887Z,54.92
2019-05-17T18:28:59.970Z,55.21
2019-05-17T18:31:53.794Z,55.81
2019-05-17T18:34:26.532Z,56.17
2019-05-17T18:37:01.989Z,56.36
2019-05-17T18:39:35.317Z,56.18
2019-05-17T18:42:09.962Z,56.67
2019-05-17T18:44:42.897Z,56.48
2019-05-17T18:47:38.524Z,57.04
2019-05-17T18:50:18.097Z,57.16
2019-05-17T18:52:51.006Z,57.71
2019-05-17T18:55:23.243Z,57.40
2019-05-17T18:57:56.227Z,57.30
2019-05-17T19:00:30.530Z,57.75
2019-05-17T19:03:03.328Z,57.45
2019-05-17T19:05:36.052Z,57.93
2019-05-17T19:08:09.090Z,58.15
2019-05-17T19:10:41.682Z,58.61
2019-05-17T19:13:14.396Z,58.97
2019-05-17T19:15:47.365Z,59.08
2019-05-17T19:18:40.565Z,59.04
2019-05-17T19:21:18.166Z,59.78
2019-05-17T19:24:11.057Z,59.75
2019-05-17T19:26:47.335Z,60.41
2019-05-17T19:29:20.767Z,61.45
2019-05-17T19:31:56.070Z,61.80
2019-05-17T19:34:30.070Z,62.01
2019-05-17T19:37:05.308Z,61.78
2019-05-17T19:39:39.525Z,61.60
2019-05-17T19:42:13.090Z,61.41
2019-05-17T19:44:58.686Z,61.39
2019-05-17T19:47:20.930Z,60.75
2019-05-17T19:49:56.360Z,60.94
2019-05-17T19:52:29.041Z,61.11
2019-05-17T19:55:02.515Z,61.19
2019-05-17T19:57:36.831Z,61.35
2019-05-17T20:00:15.528Z,61.08
2019-05-17T20:02:53.192Z,61.37
2019-05-17T20:05:25.693Z,61.57
2019-05-17T20:07:59.093Z,61.96
2019-05-17T20:10:31.897Z,62.41
2019-05-17T20:13:05.634Z,62.16
2019-05-17T20:15:39.156Z,62.83
2019-05-17T20:18:14.029Z,63.19
2019-05-17T20:20:48.295Z,63.67
2019-05-17T20:23:22.522Z,63.49
2019-05-17T20:25:56.235Z,63.73
2019-05-17T20:28:31.652Z,64.17
2019-05-17T20:31:04.662Z,64.12
2019-05-17T20:33:37.260Z,64.52
2019-05-17T20:36:11.861Z,64.49
2019-05-17T20:41:46.075Z,64.91
2019-05-17T20:44:18.990Z,64.88
2019-05-17T20:46:51.595Z,64.43
2019-05-17T20:49:25.410Z,64.37
2019-05-17T20:51:58.660Z,64.47
2019-05-17T20:54:33.695Z,64.36
2019-05-17T20:57:07.515Z,64.79
2019-05-17T20:59:39.710Z,65.49
2019-05-17T21:02:14.502Z,66.13
2019-05-17T21:04:49.379Z,66.70
2019-05-17T21:07:21.561Z,67.78
2019-05-17T21:09:53.779Z,68.47
2019-05-17T21:12:27.705Z,68.81
2019-05-17T21:14:59.784Z,69.48
2019-05-17T21:17:33.488Z,69.71
2019-05-17T21:20:07.682Z,69.89
2019-05-17T21:22:40.358Z,70.54
2019-05-17T21:25:14.578Z,70.23
2019-05-17T21:27:48.265Z,68.66
2019-05-17T21:30:20.965Z,68.37
2019-05-17T21:32:54.673Z,68.14
2019-05-17T21:35:30.237Z,67.17
2019-05-17T21:38:23.974Z,67.02
2019-05-17T21:40:59.661Z,65.81
2019-05-17T21:43:34.457Z,66.12
2019-05-17T21:46:10.790Z,65.93
2019-05-17T21:48:44.783Z,65.63
2019-05-17T21:51:17.598Z,65.89
2019-05-17T21:53:50.257Z,65.99
2019-05-17T21:56:23.000Z,65.54
2019-05-17T21:58:55.866Z,65.29
2019-05-17T22:01:31.927Z,65.32
2019-05-17T22:04:05.057Z,65.11
2019-05-17T22:06:40.042Z,65.15
2019-05-17T22:09:13.658Z,64.98
2019-05-17T22:12:11.141Z,64.96
2019-05-17T22:14:46.776Z,65.04
2019-05-17T22:17:19.378Z,65.07
2019-05-17T22:19:52.095Z,65.48
2019-05-17T22:22:25.259Z,65.48
2019-05-17T22:24:59.414Z,65.36
2019-05-17T22:27:32.605Z,65.60
2019-05-17T22:30:09.725Z,65.42
2019-05-17T22:32:42.519Z,65.66
2019-05-17T22:35:17.914Z,65.62
2019-05-17T22:37:49.915Z,65.46
2019-05-17T22:40:22.614Z,65.52
2019-05-17T22:42:55.169Z,65.72
2019-05-17T22:45:28.275Z,66.05
2019-05-17T22:52:19.726Z,66.06
2019-05-17T22:54:52.776Z,66.37
2019-05-17T22:57:25.816Z,66.43
2019-05-17T22:59:58.589Z,66.47
2019-05-17T23:02:31.667Z,66.45
2019-05-17T23:05:04.647Z,66.71
2019-05-17T23:07:37.947Z,67.26
2019-05-17T23:10:11.180Z,67.68
2019-05-17T23:12:43.567Z,67.68
2019-05-17T23:15:18.512Z,67.96
2019-05-17T23:17:51.327Z,67.72
2019-05-17T23:20:24.366Z,67.88
2019-05-17T23:22:56.913Z,67.90
2019-05-17T23:25:32.755Z,68.04
2019-05-17T23:28:07.587Z,67.89
2019-05-17T23:30:41.559Z,67.75
2019-05-17T23:33:15.184Z,68.13
2019-05-17T23:35:49.055Z,68.39
2019-05-17T23:38:29.194Z,68.85
2019-05-17T23:41:02.077Z,68.90
2019-05-17T23:43:35.009Z,68.76
2019-05-17T23:46:08.309Z,69.53
2019-05-17T23:48:42.698Z,69.95
2019-05-17T23:51:25.066Z,70.78
2019-05-17T23:53:58.080Z,71.91
2019-05-17T23:56:32.767Z,72.73
2019-05-17T23:59:10.482Z,73.34
